Time;durP1;ratioP1;P1;durP2;ratioP2;P2;SDS_P1;SDS_P2;PMS_P1;PMS_P2;Temp;Humidity;BMP_temperature;BMP_pressure;BME280_temperature;BME280_humidity;BME280_pressure;Samples;Min_cycle;Max_cycle;Signal;HPM_P1;HPM_P2
2021/11/13 00:00:39;;;;;;;0.35;0.35;;;22.00;76.20;;;;;;6243737;22;20031;-73
2021/11/13 00:03:07;;;;;;;0.73;0.50;;;22.00;76.40;;;;;;6271348;22;20025;-72
2021/11/13 00:05:34;;;;;;;1.20;0.40;;;22.00;76.60;;;;;;6272562;22;20011;-73
2021/11/13 00:08:03;;;;;;;4.32;0.90;;;22.00;76.70;;;;;;6269834;22;20011;-73
2021/11/13 00:10:29;;;;;;;0.77;0.55;;;22.00;77.00;;;;;;6272723;22;19995;-73
2021/11/13 00:12:59;;;;;;;0.93;0.77;;;22.00;77.00;;;;;;6271511;22;20031;-73
2021/11/13 00:15:26;;;;;;;0.68;0.68;;;21.90;77.10;;;;;;6271496;22;19996;-72
2021/11/13 00:17:54;;;;;;;3.85;0.88;;;21.90;77.30;;;;;;6272096;22;20006;-73
2021/11/13 00:20:24;;;;;;;1.08;0.98;;;21.90;77.50;;;;;;6271504;22;19999;-73
2021/11/13 00:22:51;;;;;;;2.47;1.20;;;21.80;77.50;;;;;;6272187;22;20000;-73
2021/11/13 00:25:17;;;;;;;1.63;0.90;;;21.80;77.50;;;;;;6270732;22;19995;-73
2021/11/13 00:27:44;;;;;;;4.32;1.75;;;21.80;77.60;;;;;;6272013;22;20034;-73
2021/11/13 00:30:12;;;;;;;3.45;1.30;;;21.80;77.70;;;;;;6270894;22;20399;-73
2021/11/13 00:32:39;;;;;;;4.70;1.20;;;21.80;77.80;;;;;;6271891;22;20089;-73
2021/11/13 00:35:06;;;;;;;1.38;1.02;;;21.80;77.90;;;;;;6272303;22;19995;-73
2021/11/13 00:37:32;;;;;;;2.53;1.52;;;21.80;78.10;;;;;;6271037;22;20003;-73
2021/11/13 00:39:59;;;;;;;5.38;1.40;;;21.80;78.20;;;;;;6272505;22;20002;-73
2021/11/13 00:42:25;;;;;;;1.42;1.33;;;21.80;78.20;;;;;;6270685;22;20070;-73
2021/11/13 00:44:52;;;;;;;1.77;1.38;;;21.80;78.30;;;;;;6272392;22;20004;-73
2021/11/13 00:47:19;;;;;;;2.83;1.33;;;21.80;78.30;;;;;;6270617;22;20011;-73
2021/11/13 00:49:46;;;;;;;4.00;2.00;;;21.80;78.50;;;;;;6271952;22;20047;-73
2021/11/13 00:52:12;;;;;;;1.73;1.30;;;21.80;78.50;;;;;;6271781;22;20076;-73
2021/11/13 00:54:39;;;;;;;1.50;0.98;;;21.80;78.60;;;;;;6270955;22;20007;-73
2021/11/13 00:57:08;;;;;;;4.10;1.00;;;21.80;78.70;;;;;;6272216;22;20006;-72
2021/11/13 00:59:35;;;;;;;1.63;0.40;;;21.80;78.90;;;;;;6270153;22;20016;-72
2021/11/13 01:02:02;;;;;;;0.40;0.40;;;21.80;79.00;;;;;;6272186;22;20003;-72
2021/11/13 01:04:29;;;;;;;1.05;0.75;;;21.80;78.90;;;;;;6270723;22;20004;-72
2021/11/13 01:06:55;;;;;;;3.50;0.60;;;21.80;78.90;;;;;;6271759;22;20065;-72
2021/11/13 01:09:22;;;;;;;1.23;0.63;;;21.80;79.10;;;;;;6271365;22;20066;-72
2021/11/13 01:11:49;;;;;;;3.70;1.05;;;21.80;79.00;;;;;;6270082;22;20011;-73
2021/11/13 01:14:16;;;;;;;12.68;6.35;;;21.70;79.10;;;;;;6271125;22;20008;-73
2021/11/13 01:16:42;;;;;;;98.93;88.15;;;21.70;79.40;;;;;;6270479;22;20003;-71
2021/11/13 01:19:11;;;;;;;19.48;15.80;;;21.80;79.50;;;;;;6271593;22;20024;-73
2021/11/13 01:21:38;;;;;;;4.43;3.05;;;21.80;79.50;;;;;;6270202;22;20000;-72
2021/11/13 01:24:05;;;;;;;6.50;2.15;;;21.80;79.30;;;;;;6270604;22;20115;-72
2021/11/13 01:26:31;;;;;;;6.38;2.25;;;21.80;79.30;;;;;;6270842;22;20018;-72
2021/11/13 01:28:58;;;;;;;7.18;3.10;;;21.80;79.50;;;;;;6270928;22;20000;-73
2021/11/13 01:31:24;;;;;;;4.28;3.22;;;21.80;79.60;;;;;;6271590;22;20508;-72
2021/11/13 01:33:56;;;;;;;4.88;1.33;;;21.80;79.90;;;;;;6270144;22;20007;-72
2021/11/13 01:36:23;;;;;;;1.63;0.73;;;21.80;80.10;;;;;;6271423;22;19992;-72
2021/11/13 01:38:51;;;;;;;1.77;0.85;;;21.80;80.10;;;;;;6270395;22;20000;-72
2021/11/13 01:41:17;;;;;;;1.38;0.75;;;21.80;80.30;;;;;;6271339;22;20407;-72
2021/11/13 01:43:44;;;;;;;1.80;0.80;;;21.80;80.30;;;;;;6270353;22;20000;-72
2021/11/13 01:46:11;;;;;;;1.10;1.00;;;21.80;80.50;;;;;;6270905;22;20011;-71
2021/11/13 01:48:38;;;;;;;1.88;0.77;;;21.80;80.80;;;;;;6271778;22;19999;-72
2021/11/13 01:51:26;;;;;;;3.08;1.08;;;21.80;81.10;;;;;;6270119;22;19999;-72
2021/11/13 01:53:55;;;;;;;1.95;1.20;;;21.80;81.60;;;;;;6271482;22;20003;-73
2021/11/13 01:56:22;;;;;;;0.77;0.70;;;21.70;82.40;;;;;;6269859;22;20000;-74
2021/11/13 01:58:52;;;;;;;1.40;1.17;;;21.70;83.10;;;;;;6270788;22;20094;-73
2021/11/13 02:01:20;;;;;;;2.08;0.32;;;21.70;83.60;;;;;;6270581;22;20100;-73
2021/11/13 02:03:48;;;;;;;1.55;0.60;;;21.70;84.30;;;;;;6270392;22;19999;-74
2021/11/13 02:06:16;;;;;;;1.98;0.50;;;21.60;85.30;;;;;;6271155;22;20000;-74
2021/11/13 02:08:43;;;;;;;1.05;0.82;;;21.60;85.90;;;;;;6269682;22;20006;-73
2021/11/13 02:11:12;;;;;;;5.07;0.85;;;21.60;86.50;;;;;;6270935;22;19995;-74
2021/11/13 02:13:39;;;;;;;0.43;0.40;;;21.50;86.60;;;;;;6269056;22;20003;-73
2021/11/13 02:16:08;;;;;;;1.38;0.60;;;21.50;86.70;;;;;;6271035;22;20003;-73
2021/11/13 02:18:36;;;;;;;1.15;0.70;;;21.50;86.50;;;;;;6270879;22;20007;-72
2021/11/13 02:21:03;;;;;;;9.95;1.23;;;21.50;86.10;;;;;;6270520;22;20022;-75
2021/11/13 02:23:29;;;;;;;0.60;0.50;;;21.50;86.00;;;;;;6242999;22;20534;-73
2021/11/13 02:25:56;;;;;;;24.85;16.90;;;21.40;85.90;;;;;;6268801;22;20031;-73
2021/11/13 02:28:24;;;;;;;63.65;56.70;;;21.40;86.20;;;;;;6271766;22;19996;-73
2021/11/13 02:30:54;;;;;;;23.77;20.20;;;21.40;86.30;;;;;;6242513;22;20330;-73
2021/11/13 02:33:21;;;;;;;2.13;1.73;;;21.40;86.20;;;;;;6271020;22;20004;-73
2021/11/13 02:35:50;;;;;;;2.10;0.70;;;21.40;86.00;;;;;;6270376;22;20078;-73
2021/11/13 02:38:23;;;;;;;0.55;0.55;;;21.40;86.00;;;;;;6270396;22;19999;-73
2021/11/13 02:40:56;;;;;;;5.05;0.95;;;21.40;85.90;;;;;;6271040;22;20384;-72
2021/11/13 02:43:24;;;;;;;6.15;0.90;;;21.40;86.10;;;;;;6269693;22;20430;-72
2021/11/13 02:45:53;;;;;;;5.70;1.02;;;21.40;86.30;;;;;;6270997;22;20019;-73
2021/11/13 02:48:21;;;;;;;1.95;0.90;;;21.40;86.10;;;;;;6269808;22;20022;-72
2021/11/13 02:50:49;;;;;;;0.60;0.52;;;21.40;86.20;;;;;;6271064;22;20004;-74
2021/11/13 02:53:18;;;;;;;2.72;0.73;;;21.30;86.10;;;;;;6270228;22;20010;-73
2021/11/13 02:55:45;;;;;;;5.82;1.48;;;21.30;86.10;;;;;;6270351;22;20423;-73
2021/11/13 02:58:11;;;;;;;3.90;0.85;;;21.30;85.90;;;;;;6270649;22;20015;-72
2021/11/13 03:00:39;;;;;;;6.13;0.90;;;21.30;85.70;;;;;;6269495;22;20028;-72
2021/11/13 03:03:05;;;;;;;1.10;0.70;;;21.30;85.70;;;;;;6243517;22;20008;-72
2021/11/13 03:05:35;;;;;;;1.25;0.80;;;21.30;85.30;;;;;;6269102;22;20090;-72
2021/11/13 03:08:41;;;;;;;1.90;1.48;;;21.30;85.10;;;;;;6243809;22;20018;-73
2021/11/13 03:11:31;;;;;;;3.30;0.95;;;21.30;84.60;;;;;;6270999;22;20031;-73
2021/11/13 03:13:58;;;;;;;4.05;1.58;;;21.30;84.10;;;;;;6242581;22;20004;-73
2021/11/13 03:16:24;;;;;;;3.60;1.10;;;21.30;84.00;;;;;;6271034;22;20485;-73
2021/11/13 03:18:51;;;;;;;5.25;1.23;;;21.20;83.90;;;;;;6269637;22;20396;-72
2021/11/13 03:21:17;;;;;;;3.22;1.17;;;21.20;84.00;;;;;;6243176;22;20088;-72
2021/11/13 03:23:46;;;;;;;3.92;1.05;;;21.20;84.00;;;;;;6271033;22;20455;-74
2021/11/13 03:26:19;;;;;;;3.90;1.08;;;21.20;83.90;;;;;;6269781;22;20012;-72
2021/11/13 03:28:55;;;;;;;4.30;1.33;;;21.20;83.80;;;;;;6270762;22;20004;-72
2021/11/13 03:31:24;;;;;;;32.97;24.77;;;21.20;83.80;;;;;;6269788;22;20007;-72
2021/11/13 03:33:52;;;;;;;20.48;13.23;;;21.10;84.10;;;;;;6270724;22;20427;-75
2021/11/13 03:36:20;;;;;;;4.75;2.90;;;21.20;84.00;;;;;;6270221;22;20000;-74
2021/11/13 03:38:48;;;;;;;5.15;2.20;;;21.20;84.00;;;;;;6271895;22;20002;-72
2021/11/13 03:41:16;;;;;;;3.35;2.03;;;21.20;84.00;;;;;;6273081;22;19999;-72
2021/11/13 03:43:43;;;;;;;7.57;2.50;;;21.10;83.80;;;;;;6271991;22;20026;-73
2021/11/13 03:46:09;;;;;;;8.45;2.13;;;21.10;83.70;;;;;;6272779;22;20012;-71
2021/11/13 03:48:36;;;;;;;6.30;2.33;;;21.10;83.90;;;;;;6271486;22;20078;-73
2021/11/13 03:51:04;;;;;;;26.38;4.50;;;21.10;84.00;;;;;;6244618;22;20399;-73
2021/11/13 03:53:31;;;;;;;4.35;2.72;;;21.10;84.10;;;;;;6271666;22;20023;-73
2021/11/13 03:55:58;;;;;;;5.13;2.97;;;21.00;84.20;;;;;;6270405;22;20026;-75
2021/11/13 03:58:24;;;;;;;31.85;21.13;;;21.00;84.10;;;;;;6269390;22;20019;-72
2021/11/13 04:01:30;;;;;;;48.33;11.73;;;21.00;84.10;;;;;;6267822;22;20015;-74
2021/11/13 04:04:36;;;;;;;9.00;5.82;;;21.00;84.10;;;;;;6270717;22;20030;-73
2021/11/13 04:07:42;;;;;;;6.68;3.00;;;20.90;83.70;;;;;;6270683;22;20016;-72
2021/11/13 04:10:48;;;;;;;4.30;1.35;;;21.00;83.30;;;;;;6270059;22;20062;-69
2021/11/13 04:13:54;;;;;;;3.08;1.33;;;20.90;82.80;;;;;;6271160;22;20027;-69
2021/11/13 04:17:03;;;;;;;13.25;1.83;;;20.90;82.20;;;;;;6271308;22;20013;-72
2021/11/13 04:20:10;;;;;;;6.65;1.38;;;21.00;81.80;;;;;;6270207;22;19999;-70
2021/11/13 04:23:16;;;;;;;5.32;1.30;;;20.90;81.60;;;;;;6270083;22;20008;-71
2021/11/13 04:26:22;;;;;;;4.00;1.25;;;20.90;81.60;;;;;;6244504;22;20439;-69
2021/11/13 04:29:28;;;;;;;4.90;0.90;;;21.00;81.50;;;;;;6270884;22;20443;-70
2021/11/13 04:31:54;;;;;;;5.22;1.40;;;20.90;81.20;;;;;;6268434;22;20008;-70
2021/11/13 04:34:23;;;;;;;14.27;2.35;;;21.00;81.20;;;;;;6270734;22;20436;-70
2021/11/13 04:36:54;;;;;;;5.45;1.50;;;21.00;81.40;;;;;;6269761;22;19996;-70
2021/11/13 04:39:23;;;;;;;4.72;1.95;;;21.00;81.50;;;;;;6270352;22;19996;-69
2021/11/13 04:41:51;;;;;;;10.00;2.22;;;21.00;81.60;;;;;;6271096;22;20004;-70
2021/11/13 04:44:18;;;;;;;6.18;1.27;;;21.00;81.40;;;;;;6270250;22;20008;-70
2021/11/13 04:46:45;;;;;;;4.85;1.10;;;21.00;81.20;;;;;;6270321;22;20011;-71
2021/11/13 04:49:12;;;;;;;5.63;1.70;;;21.00;81.00;;;;;;6267036;22;20008;-71
2021/11/13 04:51:38;;;;;;;3.20;1.52;;;21.00;80.80;;;;;;6269681;22;20007;-68
2021/11/13 04:54:04;;;;;;;6.38;1.52;;;21.00;80.70;;;;;;6267464;22;20299;-73
2021/11/13 04:56:31;;;;;;;3.63;1.33;;;21.00;80.80;;;;;;6267963;22;20031;-74
2021/11/13 04:58:58;;;;;;;3.67;1.83;;;21.10;80.40;;;;;;6266705;22;20012;-84
2021/11/13 05:01:24;;;;;;;4.38;1.55;;;21.10;80.10;;;;;;6264549;22;20316;-79
2021/11/13 05:03:51;;;;;;;3.53;1.45;;;21.10;79.30;;;;;;6266838;22;20000;-74
2021/11/13 05:06:20;;;;;;;5.05;1.20;;;21.10;78.40;;;;;;6266070;22;20043;-74
2021/11/13 05:08:47;;;;;;;3.30;1.58;;;21.10;78.50;;;;;;6239817;22;20004;-75
2021/11/13 05:11:14;;;;;;;5.22;1.40;;;21.10;78.50;;;;;;6264840;22;20006;-74
2021/11/13 05:13:41;;;;;;;4.50;1.10;;;21.10;78.50;;;;;;6266698;22;20470;-74
2021/11/13 05:16:07;;;;;;;5.97;1.38;;;21.10;78.20;;;;;;6266328;22;19995;-72
2021/11/13 05:18:34;;;;;;;5.00;1.42;;;21.20;78.10;;;;;;6266140;22;20331;-76
2021/11/13 05:21:01;;;;;;;7.15;2.05;;;21.20;77.40;;;;;;6267621;22;20002;-73
2021/11/13 05:23:28;;;;;;;3.70;1.20;;;21.20;77.40;;;;;;6239129;22;20015;-73
2021/11/13 05:25:54;;;;;;;5.60;1.55;;;21.20;76.90;;;;;;6266983;22;20562;-74
2021/11/13 05:28:21;;;;;;;4.82;1.38;;;21.30;76.90;;;;;;6267533;22;20032;-70
2021/11/13 05:30:47;;;;;;;6.53;1.35;;;21.30;76.90;;;;;;6266690;22;20003;-71
2021/11/13 05:33:14;;;;;;;6.97;1.60;;;21.40;76.80;;;;;;6266147;22;20007;-68
2021/11/13 05:35:40;;;;;;;4.18;1.00;;;21.40;75.70;;;;;;6264577;22;20161;-69
2021/11/13 05:38:07;;;;;;;7.78;2.47;;;21.40;75.60;;;;;;6265974;22;20007;-68
2021/11/13 05:40:33;;;;;;;31.20;23.63;;;21.50;75.70;;;;;;6265997;22;20435;-71
2021/11/13 05:43:00;;;;;;;18.90;13.25;;;21.60;75.50;;;;;;6267619;22;20313;-68
2021/11/13 05:45:27;;;;;;;6.50;3.70;;;21.60;75.30;;;;;;6265292;22;19995;-69
2021/11/13 05:47:53;;;;;;;5.13;2.33;;;21.60;75.10;;;;;;6267385;22;20066;-68
2021/11/13 05:50:21;;;;;;;4.22;1.35;;;21.70;74.90;;;;;;6265765;22;20003;-68
2021/11/13 05:52:50;;;;;;;10.20;1.80;;;21.70;74.70;;;;;;6267163;22;20003;-69
2021/11/13 05:55:16;;;;;;;17.27;10.57;;;21.80;74.80;;;;;;6268592;22;20080;-67
2021/11/13 05:57:43;;;;;;;9.93;6.43;;;21.80;74.50;;;;;;6268089;22;20055;-68
2021/11/13 06:00:14;;;;;;;16.58;5.07;;;21.90;73.80;;;;;;6268215;22;20003;-68
2021/11/13 06:02:41;;;;;;;3.60;1.65;;;21.90;73.20;;;;;;6267664;22;20011;-68
2021/11/13 06:05:08;;;;;;;8.40;1.40;;;21.90;73.10;;;;;;6269072;22;20982;-68
2021/11/13 06:07:36;;;;;;;9.60;1.63;;;22.00;72.70;;;;;;6267484;22;20019;-72
2021/11/13 06:10:04;;;;;;;10.13;1.25;;;22.10;72.60;;;;;;6268798;22;20083;-68
2021/11/13 06:12:31;;;;;;;8.18;1.25;;;22.10;72.30;;;;;;6269281;22;20075;-68
2021/11/13 06:14:57;;;;;;;3.00;1.40;;;22.10;71.30;;;;;;6270548;22;20004;-68
2021/11/13 06:17:24;;;;;;;2.15;0.90;;;22.10;70.80;;;;;;6271072;22;20555;-69
2021/11/13 06:19:51;;;;;;;5.25;2.17;;;22.20;70.60;;;;;;6268713;22;20367;-67
2021/11/13 06:22:17;;;;;;;5.53;1.20;;;22.30;70.40;;;;;;6270698;22;20007;-67
2021/11/13 06:24:43;;;;;;;3.58;0.73;;;22.30;70.00;;;;;;6268031;22;20065;-66
2021/11/13 06:27:10;;;;;;;4.07;0.75;;;22.40;69.20;;;;;;6268846;22;20004;-67
2021/11/13 06:29:37;;;;;;;3.33;0.82;;;22.40;68.80;;;;;;6269695;22;20004;-68
2021/11/13 06:32:04;;;;;;;2.17;1.08;;;22.50;68.70;;;;;;6270219;22;20000;-67
2021/11/13 06:34:30;;;;;;;7.88;2.05;;;22.50;68.30;;;;;;6271405;22;20011;-67
2021/11/13 06:36:57;;;;;;;2.78;0.93;;;22.50;68.00;;;;;;6270101;22;19991;-67
2021/11/13 06:39:23;;;;;;;4.60;1.23;;;22.60;67.80;;;;;;6270943;22;20010;-68
2021/11/13 06:41:50;;;;;;;1.92;0.60;;;22.70;67.20;;;;;;6270061;22;20094;-68
2021/11/13 06:44:16;;;;;;;5.40;1.83;;;22.70;66.90;;;;;;6271423;22;20010;-67
2021/11/13 06:46:43;;;;;;;5.03;2.25;;;22.80;66.70;;;;;;6270574;22;20018;-67
2021/11/13 06:49:11;;;;;;;5.35;0.90;;;22.80;66.60;;;;;;6270662;22;20007;-68
2021/11/13 06:51:37;;;;;;;1.98;0.85;;;22.80;66.10;;;;;;6270613;22;19999;-67
2021/11/13 06:54:04;;;;;;;6.93;1.85;;;22.80;66.20;;;;;;6269971;22;19996;-68
2021/11/13 06:57:10;;;;;;;16.95;1.52;;;22.90;66.50;;;;;;6271002;22;20334;-67
2021/11/13 07:00:16;;;;;;;5.70;1.35;;;22.90;66.70;;;;;;6270289;22;20012;-67
2021/11/13 07:03:22;;;;;;;5.40;1.30;;;22.90;65.40;;;;;;6269721;22;20004;-67
2021/11/13 07:06:44;;;;;;;3.58;1.35;;;22.90;66.10;;;;;;6268935;22;20105;-67
2021/11/13 07:09:50;;;;;;;2.25;0.88;;;23.00;66.00;;;;;;6270817;22;20000;-67
2021/11/13 07:12:56;;;;;;;4.55;2.30;;;23.10;66.00;;;;;;6271191;22;20022;-68
2021/11/13 07:16:03;;;;;;;6.65;1.70;;;23.10;65.80;;;;;;6272792;22;20004;-68
2021/11/13 07:19:09;;;;;;;4.68;1.05;;;23.20;66.20;;;;;;6272625;22;20372;-67
2021/11/13 07:22:15;;;;;;;3.63;0.93;;;23.20;66.10;;;;;;6271911;22;19999;-68
2021/11/13 07:25:22;;;;;;;4.45;1.05;;;23.20;65.30;;;;;;6271758;22;20026;-68
2021/11/13 07:28:38;;;;;;;5.15;1.52;;;23.20;64.80;;;;;;6272680;22;20026;-68
2021/11/13 07:31:44;;;;;;;2.58;1.40;;;23.20;65.20;;;;;;6272690;22;19995;-68
2021/11/13 07:34:50;;;;;;;3.85;0.77;;;23.20;65.20;;;;;;6271258;22;19996;-67
2021/11/13 07:37:56;;;;;;;3.53;1.38;;;23.40;65.10;;;;;;6244310;22;20374;-67
2021/11/13 07:40:42;;;;;;;;;;;23.40;64.00;;;;;;6273185;22;19999;-67
2021/11/13 07:43:48;;;;;;;2.30;1.00;;;23.40;64.10;;;;;;6271715;22;19945;-68
2021/11/13 07:46:55;;;;;;;3.78;1.17;;;23.50;63.30;;;;;;6271202;22;20010;-68
2021/11/13 07:50:01;;;;;;;2.65;1.33;;;23.50;63.10;;;;;;6273015;22;20003;-68
2021/11/13 07:53:07;;;;;;;6.60;1.30;;;23.60;63.90;;;;;;6245303;22;20379;-68
2021/11/13 07:56:13;;;;;;;3.38;0.82;;;23.70;64.40;;;;;;6270877;22;20003;-67
2021/11/13 07:59:20;;;;;;;3.17;0.98;;;23.70;62.60;;;;;;6271667;22;20008;-68
2021/11/13 08:02:26;;;;;;;6.22;1.65;;;23.80;61.40;;;;;;6272294;22;20008;-68
2021/11/13 08:05:32;;;;;;;3.67;1.02;;;23.90;60.80;;;;;;6272115;22;20004;-68
2021/11/13 08:08:18;;;;;;;;;;;23.90;60.90;;;;;;6271311;22;20007;-68
2021/11/13 08:11:24;;;;;;;5.28;1.35;;;24.00;62.50;;;;;;6272411;22;19918;-69
2021/11/13 08:14:30;;;;;;;11.20;2.10;;;24.10;62.60;;;;;;6271761;22;19996;-68
2021/11/13 08:17:36;;;;;;;7.55;1.25;;;24.20;62.50;;;;;;6270734;22;20328;-68
2021/11/13 08:20:22;;;;;;;;;;;24.30;62.10;;;;;;6272155;22;20007;-68
2021/11/13 08:23:28;;;;;;;6.78;1.83;;;24.30;61.80;;;;;;6271738;22;19922;-68
2021/11/13 08:26:34;;;;;;;4.65;1.17;;;24.40;62.00;;;;;;6271488;22;20054;-68
2021/11/13 08:29:20;;;;;;;;;;;24.40;61.50;;;;;;6271875;22;20011;-68
2021/11/13 08:32:26;;;;;;;7.13;1.60;;;24.50;61.30;;;;;;6272253;22;19903;-68
2021/11/13 08:35:12;;;;;;;;;;;24.50;61.50;;;;;;6272168;22;20354;-68
2021/11/13 08:38:18;;;;;;;6.70;1.10;;;24.40;61.20;;;;;;6272010;22;19903;-68
2021/11/13 08:41:24;;;;;;;3.30;1.23;;;24.40;61.30;;;;;;6272107;22;20049;-68
2021/11/13 08:44:11;;;;;;;;;;;24.30;62.10;;;;;;6272101;22;20011;-68
2021/11/13 08:47:17;;;;;;;8.57;1.48;;;24.30;62.90;;;;;;6271020;22;19985;-68
2021/11/13 08:50:23;;;;;;;6.25;1.55;;;24.30;62.70;;;;;;6272046;22;20007;-68
2021/11/13 08:53:29;;;;;;;5.95;1.00;;;24.30;62.30;;;;;;6243962;22;20390;-68
2021/11/13 08:56:35;;;;;;;14.77;2.05;;;24.20;62.10;;;;;;6270631;22;20000;-68
2021/11/13 08:59:21;;;;;;;;;;;24.20;62.80;;;;;;6271985;22;20007;-68
2021/11/13 09:02:27;;;;;;;4.45;1.15;;;24.10;62.70;;;;;;6272009;22;19953;-68
2021/11/13 09:05:13;;;;;;;;;;;24.10;63.10;;;;;;6270683;22;20330;-69
2021/11/13 09:08:19;;;;;;;12.77;1.52;;;24.10;63.00;;;;;;6271465;22;19906;-68
2021/11/13 09:11:05;;;;;;;;;;;24.10;63.10;;;;;;6272373;22;20008;-69
2021/11/13 09:14:11;;;;;;;4.57;1.20;;;24.20;62.60;;;;;;6270690;22;19907;-69
2021/11/13 09:17:17;;;;;;;8.85;1.60;;;24.30;62.50;;;;;;6271170;22;20050;-68
2021/11/13 09:20:23;;;;;;;3.38;1.38;;;24.30;62.50;;;;;;6271933;22;20038;-69
2021/11/13 09:23:09;;;;;;;;;;;24.40;62.10;;;;;;6271047;22;20004;-68
2021/11/13 09:26:15;;;;;;;7.35;1.65;;;24.40;61.80;;;;;;6270448;22;19926;-68
2021/11/13 09:29:01;;;;;;;;;;;24.60;61.80;;;;;;6272112;22;20372;-68
2021/11/13 09:32:07;;;;;;;9.68;1.50;;;24.60;61.00;;;;;;6270693;22;19903;-68
2021/11/13 09:34:53;;;;;;;;;;;24.70;60.60;;;;;;6270204;22;20081;-68
2021/11/13 09:37:59;;;;;;;2.70;1.00;;;24.80;60.20;;;;;;6271433;22;20333;-69
2021/11/13 09:40:45;;;;;;;;;;;24.90;59.90;;;;;;6271892;22;20006;-68
2021/11/13 09:43:51;;;;;;;6.07;2.08;;;25.00;59.50;;;;;;6269593;22;19899;-68
2021/11/13 09:46:37;;;;;;;;;;;25.10;59.40;;;;;;6271671;22;19996;-68
2021/11/13 09:49:23;;;;;;;;;;;25.10;59.40;;;;;;6272938;22;20405;-69
2021/11/13 09:52:29;;;;;;;10.55;1.73;;;25.20;59.80;;;;;;6270091;22;19902;-70
2021/11/13 09:55:15;;;;;;;;;;;25.20;59.80;;;;;;6271646;22;19992;-69
2021/11/13 09:58:21;;;;;;;6.30;1.00;;;25.20;59.30;;;;;;6270588;22;20380;-69
2021/11/13 10:01:27;;;;;;;5.22;1.98;;;25.20;59.40;;;;;;6270086;22;20011;-68
2021/11/13 10:04:13;;;;;;;;;;;25.10;59.40;;;;;;6271625;22;20000;-69
2021/11/13 10:07:19;;;;;;;5.90;1.13;;;24.90;59.50;;;;;;6271062;22;19910;-69
2021/11/13 10:10:05;;;;;;;;;;;24.90;60.20;;;;;;6270325;22;20004;-68
2021/11/13 10:12:36;;;;;;;3.03;0.85;;;24.80;60.60;;;;;;6270392;22;19906;-68
2021/11/13 10:15:34;;;;;;;5.88;1.30;;;24.80;60.20;;;;;;6271074;22;20038;-67
2021/11/13 10:18:12;;;;;;;6.05;1.52;;;24.70;61.10;;;;;;6270101;22;20011;-66
2021/11/13 10:20:44;;;;;;;7.97;1.10;;;24.60;60.50;;;;;;6271244;22;20338;-70
2021/11/13 10:23:17;;;;;;;6.20;1.52;;;24.60;61.20;;;;;;6271180;22;19995;-67
2021/11/13 10:26:17;;;;;;;2.88;0.95;;;24.50;61.60;;;;;;6270938;22;20050;-67
2021/11/13 10:28:51;;;;;;;3.13;0.88;;;24.30;61.80;;;;;;6244539;22;20114;-69
2021/11/13 10:31:26;;;;;;;2.53;1.17;;;24.30;62.00;;;;;;6269737;22;20027;-70
2021/11/13 10:33:55;;;;;;;2.83;1.13;;;24.40;61.80;;;;;;6271681;22;20006;-69
2021/11/13 10:36:26;;;;;;;3.83;1.30;;;24.30;61.60;;;;;;6270664;22;20061;-67
2021/11/13 10:39:04;;;;;;;6.95;1.38;;;24.30;62.10;;;;;;6270324;22;20370;-70
2021/11/13 10:41:31;;;;;;;4.38;1.02;;;24.20;62.50;;;;;;6270996;22;20008;-70
2021/11/13 10:43:58;;;;;;;2.83;0.95;;;24.20;63.50;;;;;;6270226;22;20004;-67
2021/11/13 10:46:25;;;;;;;4.85;1.25;;;24.20;64.10;;;;;;6273226;22;20018;-67
2021/11/13 10:48:58;;;;;;;2.97;1.38;;;24.20;64.50;;;;;;6272076;22;20007;-69
2021/11/13 10:51:33;;;;;;;4.82;2.15;;;24.10;65.00;;;;;;6273114;22;19996;-68
2021/11/13 10:54:15;;;;;;;5.72;1.10;;;24.10;65.30;;;;;;6273733;22;20004;-67
2021/11/13 10:56:54;;;;;;;5.05;1.25;;;24.20;65.00;;;;;;6272262;22;19992;-68
2021/11/13 10:59:30;;;;;;;4.70;1.15;;;24.40;64.70;;;;;;6272907;22;20015;-69
2021/11/13 11:02:06;;;;;;;7.85;1.67;;;24.60;63.50;;;;;;6271540;22;20007;-69
2021/11/13 11:04:36;;;;;;;8.40;0.82;;;24.90;62.90;;;;;;6273407;22;20035;-71
2021/11/13 11:07:07;;;;;;;5.30;1.55;;;25.00;61.10;;;;;;6272469;22;20013;-71
2021/11/13 11:09:37;;;;;;;6.93;1.30;;;25.20;61.20;;;;;;6271800;22;20000;-71
2021/11/13 11:12:08;;;;;;;3.58;2.17;;;25.30;60.80;;;;;;6272983;22;20003;-66
2021/11/13 11:14:37;;;;;;;5.82;1.40;;;25.30;60.10;;;;;;6271573;22;20037;-68
2021/11/13 11:17:49;;;;;;;3.95;1.38;;;25.50;60.20;;;;;;6272911;22;19999;-70
2021/11/13 11:21:04;;;;;;;7.68;1.75;;;25.50;60.00;;;;;;6272624;22;20049;-70
2021/11/13 11:24:10;;;;;;;4.55;1.27;;;25.40;59.90;;;;;;6271219;22;20138;-70
2021/11/13 11:26:56;;;;;;;;;;;25.30;59.80;;;;;;6268739;22;20022;-71
2021/11/13 11:30:11;;;;;;;6.13;1.08;;;25.30;60.10;;;;;;6272487;22;19906;-70
2021/11/13 11:32:37;;;;;;;7.00;3.17;;;25.20;60.00;;;;;;6271471;22;20075;-70
2021/11/13 11:35:49;;;;;;;6.55;1.20;;;25.10;60.40;;;;;;6272527;22;20000;-70
2021/11/13 11:38:55;;;;;;;5.22;1.23;;;25.00;60.30;;;;;;6272019;22;20044;-70
2021/11/13 11:41:41;;;;;;;;;;;24.90;60.20;;;;;;6273087;22;20003;-70
2021/11/13 11:44:47;;;;;;;3.92;0.75;;;24.80;61.00;;;;;;6272073;22;20214;-70
2021/11/13 11:47:33;;;;;;;;;;;24.80;60.80;;;;;;6272562;22;20514;-70
2021/11/13 11:50:43;;;;;;;9.10;1.42;;;24.90;60.90;;;;;;6271742;22;19899;-70
2021/11/13 11:53:49;;;;;;;6.25;1.40;;;25.00;60.40;;;;;;6271013;22;20000;-70
2021/11/13 11:56:16;;;;;;;;;;;25.30;59.60;;;;;;6272676;22;20478;-69
2021/11/13 11:59:22;;;;;;;5.47;1.13;;;25.40;59.30;;;;;;6271754;22;19961;-69
2021/11/13 12:02:08;;;;;;;;;;;25.50;59.00;;;;;;6271529;22;20336;-72
2021/11/13 12:05:14;;;;;;;7.47;1.85;;;25.60;58.80;;;;;;6272031;22;19910;-67
2021/11/13 12:08:00;;;;;;;;;;;25.70;58.90;;;;;;6266783;22;20016;-70
2021/11/13 12:11:06;;;;;;;5.60;1.17;;;25.90;58.70;;;;;;6269373;22;19899;-74
2021/11/13 12:13:52;;;;;;;;;;;26.00;58.10;;;;;;6271434;22;20007;-70
2021/11/13 12:17:01;;;;;;;6.05;0.80;;;26.10;57.50;;;;;;6270532;22;20246;-72
2021/11/13 12:20:08;;;;;;;1.77;0.60;;;26.30;57.00;;;;;;6268656;22;20262;-70
2021/11/13 12:23:23;;;;;;;4.25;1.73;;;26.40;56.90;;;;;;6267343;22;20007;-69
2021/11/13 12:26:40;;;;;;;4.90;1.33;;;26.40;56.20;;;;;;6267287;22;20011;-70
2021/11/13 12:29:46;;;;;;;2.70;0.70;;;26.40;56.10;;;;;;6235592;22;20023;-70
2021/11/13 12:32:55;;;;;;;4.10;0.95;;;26.50;56.00;;;;;;6266508;22;20870;-71
2021/11/13 12:35:51;;;;;;;3.30;0.70;;;26.40;56.00;;;;;;6267579;22;20431;-71
2021/11/13 12:38:55;;;;;;;1.95;0.60;;;26.40;55.80;;;;;;6268078;22;20006;-72
2021/11/13 12:41:43;;;;;;;2.20;0.70;;;26.30;55.90;;;;;;6265502;22;20007;-71
2021/11/13 12:44:14;;;;;;;4.57;0.98;;;26.40;56.20;;;;;;6268214;22;20023;-71
2021/11/13 12:47:05;;;;;;;1.45;0.70;;;26.40;56.40;;;;;;6268347;22;20007;-71
2021/11/13 12:49:37;;;;;;;2.90;0.98;;;26.50;56.90;;;;;;6267235;22;20012;-71
2021/11/13 12:52:11;;;;;;;2.30;0.80;;;26.60;55.80;;;;;;6268558;22;20102;-71
2021/11/13 12:54:59;;;;;;;4.43;1.15;;;26.70;55.40;;;;;;6266261;22;20004;-71
2021/11/13 12:57:36;;;;;;;3.08;1.33;;;26.70;55.70;;;;;;6266194;22;19996;-83
2021/11/13 13:00:31;;;;;;;0.75;0.60;;;26.70;55.70;;;;;;6267458;22;20003;-71
2021/11/13 13:02:57;;;;;;;3.72;0.73;;;26.70;55.70;;;;;;6252263;22;20023;-71
2021/11/13 13:05:24;;;;;;;3.63;1.17;;;26.50;56.20;;;;;;6267121;22;19999;-72
2021/11/13 13:07:58;;;;;;;2.28;0.82;;;26.50;56.60;;;;;;6268541;22;20012;-73
2021/11/13 13:10:28;;;;;;;3.85;1.13;;;26.70;57.00;;;;;;6241693;22;20407;-72
2021/11/13 13:13:11;;;;;;;6.93;1.60;;;26.70;56.70;;;;;;6267037;22;20007;-69
2021/11/13 13:15:57;;;;;;;3.30;0.80;;;26.60;56.10;;;;;;6266843;22;20004;-70
2021/11/13 13:18:25;;;;;;;1.75;1.00;;;26.60;56.60;;;;;;6267934;22;20023;-71
2021/11/13 13:20:51;;;;;;;2.83;0.90;;;26.60;56.60;;;;;;6268838;22;20010;-70
2021/11/13 13:23:23;;;;;;;8.25;1.40;;;26.60;57.10;;;;;;6270101;22;20011;-71
2021/11/13 13:26:09;;;;;;;5.75;1.75;;;26.60;57.00;;;;;;6270237;22;20000;-70
2021/11/13 13:28:37;;;;;;;2.13;1.17;;;26.50;56.50;;;;;;6268259;22;20034;-71
2021/11/13 13:31:09;;;;;;;5.07;1.63;;;26.50;56.40;;;;;;6271591;22;19996;-72
2021/11/13 13:33:37;;;;;;;7.55;1.98;;;26.40;56.50;;;;;;6270181;22;20003;-71
2021/11/13 13:36:04;;;;;;;2.55;1.00;;;26.40;56.50;;;;;;6270105;22;20000;-72
2021/11/13 13:38:33;;;;;;;2.03;1.00;;;26.50;56.40;;;;;;6271016;22;19999;-73
2021/11/13 13:41:03;;;;;;;1.45;0.57;;;26.60;56.20;;;;;;6270640;22;20419;-71
2021/11/13 13:43:38;;;;;;;1.05;0.63;;;26.60;55.90;;;;;;6271382;22;20296;-72
2021/11/13 13:46:12;;;;;;;2.45;0.40;;;26.60;55.80;;;;;;6270051;22;20078;-73
2021/11/13 13:48:41;;;;;;;2.70;0.68;;;26.60;55.60;;;;;;6270957;22;20019;-72
2021/11/13 13:51:34;;;;;;;2.85;0.63;;;26.60;55.70;;;;;;6270430;22;20470;-69
2021/11/13 13:54:06;;;;;;;0.60;0.38;;;26.50;55.70;;;;;;6270428;22;19996;-77
2021/11/13 13:56:35;;;;;;;1.23;0.60;;;26.50;55.10;;;;;;6271464;22;20026;-68
2021/11/13 13:59:04;;;;;;;0.68;0.50;;;26.60;55.10;;;;;;6269327;22;20043;-69